Tillsonburg, Canada
Current Conditions -  °F | °C
As of 6:00 AM on Wednesday 26 Nov 2014 (Local Time) from CYHM Reporting Station
Overcast Overcast  
Wind Chill: 30°   Ceiling: 3200
Heat Index: 30°   Visibility: 15mi
Dew Point: 23°   Wind: 0mph
Humidity: 75%   Direction: NA
Pressure: 30.18"   Gusts: NA
Location:  42.8°N, 80.15°W
Report Text: CYHM 261100Z 00000KT 15SM OVC032 M01/M05 A3018 RMK SC8 PRESFR SLP232
Loading
Personal Weather Stations






























Interactive Weather Map New forecast layout! Learn more

10-Day Weather Forecast

Advertisements
Track Severe Weather on mobile